sensor_id;sensor_type;location;lat;lon;timestamp;P1;durP1;ratioP1;P2;durP2;ratioP2
49310;SDS011;35177;45.900;5.946;2023-05-07T00:02:23;5.47;;;3.20;;
49310;SDS011;35177;45.900;5.946;2023-05-07T00:04:48;5.60;;;3.38;;
49310;SDS011;35177;45.900;5.946;2023-05-07T00:07:14;8.80;;;4.15;;
49310;SDS011;35177;45.900;5.946;2023-05-07T00:09:39;8.52;;;4.10;;
49310;SDS011;35177;45.900;5.946;2023-05-07T00:12:05;5.68;;;3.60;;
49310;SDS011;35177;45.900;5.946;2023-05-07T00:14:30;6.07;;;3.17;;
49310;SDS011;35177;45.900;5.946;2023-05-07T00:16:55;6.28;;;3.75;;
49310;SDS011;35177;45.900;5.946;2023-05-07T00:19:21;7.80;;;3.72;;
49310;SDS011;35177;45.900;5.946;2023-05-07T00:21:46;4.82;;;3.55;;
49310;SDS011;35177;45.900;5.946;2023-05-07T00:24:12;10.27;;;4.38;;
49310;SDS011;35177;45.900;5.946;2023-05-07T00:26:37;9.25;;;3.80;;
49310;SDS011;35177;45.900;5.946;2023-05-07T00:29:02;6.25;;;3.28;;
49310;SDS011;35177;45.900;5.946;2023-05-07T00:31:28;5.38;;;3.20;;
49310;SDS011;35177;45.900;5.946;2023-05-07T00:33:53;6.47;;;3.35;;
49310;SDS011;35177;45.900;5.946;2023-05-07T00:36:18;5.57;;;3.35;;
49310;SDS011;35177;45.900;5.946;2023-05-07T00:38:43;7.50;;;3.80;;
49310;SDS011;35177;45.900;5.946;2023-05-07T00:41:09;7.22;;;3.10;;
49310;SDS011;35177;45.900;5.946;2023-05-07T00:43:34;7.03;;;3.40;;
49310;SDS011;35177;45.900;5.946;2023-05-07T00:45:59;7.93;;;3.80;;
49310;SDS011;35177;45.900;5.946;2023-05-07T00:48:25;6.07;;;3.35;;
49310;SDS011;35177;45.900;5.946;2023-05-07T00:50:50;5.40;;;3.45;;
49310;SDS011;35177;45.900;5.946;2023-05-07T00:53:16;5.38;;;3.30;;
49310;SDS011;35177;45.900;5.946;2023-05-07T00:55:41;4.57;;;3.17;;
49310;SDS011;35177;45.900;5.946;2023-05-07T00:58:07;4.57;;;2.90;;
49310;SDS011;35177;45.900;5.946;2023-05-07T01:00:32;5.35;;;3.60;;
49310;SDS011;35177;45.900;5.946;2023-05-07T01:02:57;2.67;;;2.10;;
49310;SDS011;35177;45.900;5.946;2023-05-07T01:05:23;4.00;;;2.10;;
49310;SDS011;35177;45.900;5.946;2023-05-07T01:07:48;3.72;;;1.90;;
49310;SDS011;35177;45.900;5.946;2023-05-07T01:10:15;3.53;;;2.47;;
49310;SDS011;35177;45.900;5.946;2023-05-07T01:12:40;4.13;;;1.85;;
49310;SDS011;35177;45.900;5.946;2023-05-07T01:15:07;2.55;;;1.42;;
49310;SDS011;35177;45.900;5.946;2023-05-07T01:17:33;1.90;;;1.23;;
49310;SDS011;35177;45.900;5.946;2023-05-07T01:19:58;2.15;;;1.88;;
49310;SDS011;35177;45.900;5.946;2023-05-07T01:22:34;3.05;;;2.03;;
49310;SDS011;35177;45.900;5.946;2023-05-07T01:25:02;5.40;;;2.30;;
49310;SDS011;35177;45.900;5.946;2023-05-07T01:27:27;4.32;;;2.42;;
49310;SDS011;35177;45.900;5.946;2023-05-07T01:29:53;4.63;;;1.98;;
49310;SDS011;35177;45.900;5.946;2023-05-07T01:32:22;7.30;;;2.13;;
49310;SDS011;35177;45.900;5.946;2023-05-07T01:34:51;4.63;;;2.88;;
49310;SDS011;35177;45.900;5.946;2023-05-07T01:37:17;6.80;;;2.92;;
49310;SDS011;35177;45.900;5.946;2023-05-07T01:39:42;4.60;;;2.55;;
49310;SDS011;35177;45.900;5.946;2023-05-07T01:42:08;3.58;;;2.70;;
49310;SDS011;35177;45.900;5.946;2023-05-07T01:44:33;4.50;;;2.83;;
49310;SDS011;35177;45.900;5.946;2023-05-07T01:46:58;3.85;;;2.33;;
49310;SDS011;35177;45.900;5.946;2023-05-07T01:49:24;3.28;;;2.35;;
49310;SDS011;35177;45.900;5.946;2023-05-07T01:51:49;4.47;;;2.78;;
49310;SDS011;35177;45.900;5.946;2023-05-07T01:54:15;4.18;;;2.30;;
49310;SDS011;35177;45.900;5.946;2023-05-07T01:56:41;3.60;;;2.15;;
49310;SDS011;35177;45.900;5.946;2023-05-07T01:59:06;5.38;;;2.10;;
49310;SDS011;35177;45.900;5.946;2023-05-07T02:01:32;3.47;;;2.20;;
49310;SDS011;35177;45.900;5.946;2023-05-07T02:03:57;5.03;;;2.83;;
49310;SDS011;35177;45.900;5.946;2023-05-07T02:06:22;3.50;;;2.30;;
49310;SDS011;35177;45.900;5.946;2023-05-07T02:08:48;2.63;;;2.08;;
49310;SDS011;35177;45.900;5.946;2023-05-07T02:11:13;6.35;;;2.80;;
49310;SDS011;35177;45.900;5.946;2023-05-07T02:13:38;7.28;;;2.70;;
49310;SDS011;35177;45.900;5.946;2023-05-07T02:16:04;3.45;;;2.05;;
49310;SDS011;35177;45.900;5.946;2023-05-07T02:18:29;4.75;;;2.08;;
49310;SDS011;35177;45.900;5.946;2023-05-07T02:20:55;4.20;;;2.00;;
49310;SDS011;35177;45.900;5.946;2023-05-07T02:23:20;3.20;;;2.30;;
49310;SDS011;35177;45.900;5.946;2023-05-07T02:25:45;7.80;;;3.55;;
49310;SDS011;35177;45.900;5.946;2023-05-07T02:28:11;4.13;;;2.25;;
49310;SDS011;35177;45.900;5.946;2023-05-07T02:30:36;5.57;;;2.38;;
49310;SDS011;35177;45.900;5.946;2023-05-07T02:33:02;4.10;;;2.20;;
49310;SDS011;35177;45.900;5.946;2023-05-07T02:35:27;8.98;;;2.58;;
49310;SDS011;35177;45.900;5.946;2023-05-07T02:37:52;2.90;;;2.40;;
49310;SDS011;35177;45.900;5.946;2023-05-07T02:40:18;4.05;;;2.47;;
49310;SDS011;35177;45.900;5.946;2023-05-07T02:42:43;7.45;;;2.45;;
49310;SDS011;35177;45.900;5.946;2023-05-07T02:45:09;3.58;;;2.20;;
49310;SDS011;35177;45.900;5.946;2023-05-07T02:47:34;5.75;;;2.20;;
49310;SDS011;35177;45.900;5.946;2023-05-07T02:50:00;4.90;;;2.20;;
49310;SDS011;35177;45.900;5.946;2023-05-07T02:52:25;2.40;;;2.20;;
49310;SDS011;35177;45.900;5.946;2023-05-07T02:54:50;3.92;;;2.53;;
49310;SDS011;35177;45.900;5.946;2023-05-07T02:57:16;3.63;;;2.22;;
49310;SDS011;35177;45.900;5.946;2023-05-07T02:59:41;5.55;;;2.10;;
49310;SDS011;35177;45.900;5.946;2023-05-07T03:02:07;2.38;;;2.00;;
49310;SDS011;35177;45.900;5.946;2023-05-07T03:04:32;7.25;;;3.20;;
49310;SDS011;35177;45.900;5.946;2023-05-07T03:06:57;2.55;;;1.92;;
49310;SDS011;35177;45.900;5.946;2023-05-07T03:09:22;3.47;;;2.42;;
49310;SDS011;35177;45.900;5.946;2023-05-07T03:11:48;4.13;;;2.33;;
49310;SDS011;35177;45.900;5.946;2023-05-07T03:14:13;4.85;;;2.35;;
49310;SDS011;35177;45.900;5.946;2023-05-07T03:16:39;8.48;;;2.13;;
49310;SDS011;35177;45.900;5.946;2023-05-07T03:19:04;5.82;;;2.40;;
49310;SDS011;35177;45.900;5.946;2023-05-07T03:21:29;5.25;;;2.20;;
49310;SDS011;35177;45.900;5.946;2023-05-07T03:23:55;2.97;;;2.35;;
49310;SDS011;35177;45.900;5.946;2023-05-07T03:26:21;3.63;;;2.25;;
49310;SDS011;35177;45.900;5.946;2023-05-07T03:28:46;3.03;;;2.30;;
49310;SDS011;35177;45.900;5.946;2023-05-07T03:31:11;5.32;;;2.17;;
49310;SDS011;35177;45.900;5.946;2023-05-07T03:33:39;2.80;;;1.92;;
49310;SDS011;35177;45.900;5.946;2023-05-07T03:36:13;3.53;;;2.20;;
49310;SDS011;35177;45.900;5.946;2023-05-07T03:38:39;5.57;;;2.30;;
49310;SDS011;35177;45.900;5.946;2023-05-07T03:41:04;3.55;;;2.15;;
49310;SDS011;35177;45.900;5.946;2023-05-07T03:43:29;3.05;;;2.15;;
49310;SDS011;35177;45.900;5.946;2023-05-07T03:45:55;4.22;;;2.25;;
49310;SDS011;35177;45.900;5.946;2023-05-07T03:48:20;4.18;;;2.08;;
49310;SDS011;35177;45.900;5.946;2023-05-07T03:50:45;4.18;;;1.88;;
49310;SDS011;35177;45.900;5.946;2023-05-07T03:53:11;2.85;;;2.15;;
49310;SDS011;35177;45.900;5.946;2023-05-07T03:55:36;5.80;;;2.83;;
49310;SDS011;35177;45.900;5.946;2023-05-07T03:58:01;2.58;;;2.10;;
49310;SDS011;35177;45.900;5.946;2023-05-07T04:00:27;2.42;;;2.08;;
49310;SDS011;35177;45.900;5.946;2023-05-07T04:02:52;3.63;;;2.03;;
49310;SDS011;35177;45.900;5.946;2023-05-07T04:05:17;2.58;;;2.30;;
49310;SDS011;35177;45.900;5.946;2023-05-07T04:07:43;2.55;;;2.25;;
49310;SDS011;35177;45.900;5.946;2023-05-07T04:10:08;3.47;;;2.55;;
49310;SDS011;35177;45.900;5.946;2023-05-07T04:12:33;18.25;;;4.65;;
49310;SDS011;35177;45.900;5.946;2023-05-07T04:14:59;3.15;;;2.40;;
49310;SDS011;35177;45.900;5.946;2023-05-07T04:17:24;4.93;;;2.47;;
49310;SDS011;35177;45.900;5.946;2023-05-07T04:19:49;5.38;;;2.80;;
49310;SDS011;35177;45.900;5.946;2023-05-07T04:22:15;4.00;;;2.60;;
49310;SDS011;35177;45.900;5.946;2023-05-07T04:24:40;2.90;;;2.30;;
49310;SDS011;35177;45.900;5.946;2023-05-07T04:27:05;2.65;;;2.45;;
49310;SDS011;35177;45.900;5.946;2023-05-07T04:29:31;5.90;;;2.47;;
49310;SDS011;35177;45.900;5.946;2023-05-07T04:31:56;2.50;;;2.28;;
49310;SDS011;35177;45.900;5.946;2023-05-07T04:34:23;5.03;;;2.60;;
49310;SDS011;35177;45.900;5.946;2023-05-07T04:36:48;5.65;;;2.97;;
49310;SDS011;35177;45.900;5.946;2023-05-07T04:39:14;3.78;;;2.25;;
49310;SDS011;35177;45.900;5.946;2023-05-07T04:41:40;4.20;;;2.58;;
49310;SDS011;35177;45.900;5.946;2023-05-07T04:44:05;3.45;;;2.90;;
49310;SDS011;35177;45.900;5.946;2023-05-07T04:46:31;4.82;;;2.90;;
49310;SDS011;35177;45.900;5.946;2023-05-07T04:48:56;3.28;;;2.20;;
49310;SDS011;35177;45.900;5.946;2023-05-07T04:51:22;2.88;;;2.28;;
49310;SDS011;35177;45.900;5.946;2023-05-07T04:53:47;2.22;;;2.03;;
49310;SDS011;35177;45.900;5.946;2023-05-07T04:56:12;3.67;;;2.60;;
49310;SDS011;35177;45.900;5.946;2023-05-07T04:58:38;4.90;;;2.92;;
49310;SDS011;35177;45.900;5.946;2023-05-07T05:01:03;3.03;;;2.38;;
49310;SDS011;35177;45.900;5.946;2023-05-07T05:03:29;3.00;;;2.50;;
49310;SDS011;35177;45.900;5.946;2023-05-07T05:05:55;3.83;;;2.38;;
49310;SDS011;35177;45.900;5.946;2023-05-07T05:08:22;2.85;;;2.38;;
49310;SDS011;35177;45.900;5.946;2023-05-07T05:10:47;3.20;;;2.40;;
49310;SDS011;35177;45.900;5.946;2023-05-07T05:13:14;5.50;;;2.50;;
49310;SDS011;35177;45.900;5.946;2023-05-07T05:15:40;4.32;;;2.50;;
49310;SDS011;35177;45.900;5.946;2023-05-07T05:18:05;5.50;;;2.90;;
49310;SDS011;35177;45.900;5.946;2023-05-07T05:20:30;12.55;;;3.25;;
49310;SDS011;35177;45.900;5.946;2023-05-07T05:22:55;3.42;;;2.80;;
49310;SDS011;35177;45.900;5.946;2023-05-07T05:25:21;4.03;;;2.65;;
49310;SDS011;35177;45.900;5.946;2023-05-07T05:27:46;3.33;;;2.70;;
49310;SDS011;35177;45.900;5.946;2023-05-07T05:30:11;6.28;;;2.53;;
49310;SDS011;35177;45.900;5.946;2023-05-07T05:32:37;2.50;;;2.20;;
49310;SDS011;35177;45.900;5.946;2023-05-07T05:35:03;5.10;;;2.33;;
49310;SDS011;35177;45.900;5.946;2023-05-07T05:37:28;4.75;;;2.40;;
49310;SDS011;35177;45.900;5.946;2023-05-07T05:39:55;5.72;;;2.15;;
49310;SDS011;35177;45.900;5.946;2023-05-07T05:42:20;8.57;;;2.30;;
49310;SDS011;35177;45.900;5.946;2023-05-07T05:44:46;4.85;;;2.50;;
49310;SDS011;35177;45.900;5.946;2023-05-07T05:47:11;3.85;;;2.45;;
49310;SDS011;35177;45.900;5.946;2023-05-07T05:49:36;3.03;;;2.38;;
49310;SDS011;35177;45.900;5.946;2023-05-07T05:52:02;3.88;;;2.30;;
49310;SDS011;35177;45.900;5.946;2023-05-07T05:54:27;2.90;;;2.25;;
49310;SDS011;35177;45.900;5.946;2023-05-07T05:56:52;5.70;;;2.70;;
49310;SDS011;35177;45.900;5.946;2023-05-07T05:59:17;3.03;;;2.33;;
49310;SDS011;35177;45.900;5.946;2023-05-07T06:01:43;3.25;;;2.60;;
49310;SDS011;35177;45.900;5.946;2023-05-07T06:04:08;5.90;;;2.75;;
49310;SDS011;35177;45.900;5.946;2023-05-07T06:06:33;4.88;;;2.72;;
49310;SDS011;35177;45.900;5.946;2023-05-07T06:08:59;4.95;;;2.85;;
49310;SDS011;35177;45.900;5.946;2023-05-07T06:11:24;4.18;;;2.40;;
49310;SDS011;35177;45.900;5.946;2023-05-07T06:13:50;3.85;;;2.17;;
49310;SDS011;35177;45.900;5.946;2023-05-07T06:16:15;2.83;;;2.33;;
49310;SDS011;35177;45.900;5.946;2023-05-07T06:18:41;5.47;;;2.38;;
49310;SDS011;35177;45.900;5.946;2023-05-07T06:21:06;2.75;;;1.90;;
49310;SDS011;35177;45.900;5.946;2023-05-07T06:23:31;3.55;;;1.70;;
49310;SDS011;35177;45.900;5.946;2023-05-07T06:25:57;2.63;;;1.95;;
49310;SDS011;35177;45.900;5.946;2023-05-07T06:28:22;2.80;;;2.33;;
49310;SDS011;35177;45.900;5.946;2023-05-07T06:30:47;2.65;;;2.00;;
49310;SDS011;35177;45.900;5.946;2023-05-07T06:33:14;3.22;;;2.20;;
49310;SDS011;35177;45.900;5.946;2023-05-07T06:35:40;4.20;;;2.10;;
49310;SDS011;35177;45.900;5.946;2023-05-07T06:38:05;6.60;;;2.80;;
49310;SDS011;35177;45.900;5.946;2023-05-07T06:40:30;4.47;;;2.50;;
49310;SDS011;35177;45.900;5.946;2023-05-07T06:42:56;3.83;;;2.55;;
49310;SDS011;35177;45.900;5.946;2023-05-07T06:45:22;4.70;;;2.63;;
49310;SDS011;35177;45.900;5.946;2023-05-07T06:47:48;4.43;;;2.10;;
49310;SDS011;35177;45.900;5.946;2023-05-07T06:50:14;4.45;;;2.28;;
49310;SDS011;35177;45.900;5.946;2023-05-07T06:52:41;4.70;;;2.67;;
49310;SDS011;35177;45.900;5.946;2023-05-07T06:55:07;3.55;;;2.60;;
49310;SDS011;35177;45.900;5.946;2023-05-07T06:57:32;4.00;;;2.90;;
49310;SDS011;35177;45.900;5.946;2023-05-07T06:59:57;4.72;;;3.22;;
49310;SDS011;35177;45.900;5.946;2023-05-07T07:02:23;3.83;;;2.72;;
49310;SDS011;35177;45.900;5.946;2023-05-07T07:04:48;3.33;;;2.00;;
49310;SDS011;35177;45.900;5.946;2023-05-07T07:07:13;5.70;;;2.90;;
49310;SDS011;35177;45.900;5.946;2023-05-07T07:09:38;6.90;;;2.63;;
49310;SDS011;35177;45.900;5.946;2023-05-07T07:12:04;5.22;;;2.53;;
49310;SDS011;35177;45.900;5.946;2023-05-07T07:14:29;4.72;;;2.53;;
49310;SDS011;35177;45.900;5.946;2023-05-07T07:16:54;5.57;;;2.17;;
49310;SDS011;35177;45.900;5.946;2023-05-07T07:19:20;7.93;;;2.25;;
49310;SDS011;35177;45.900;5.946;2023-05-07T07:21:45;4.25;;;2.40;;
49310;SDS011;35177;45.900;5.946;2023-05-07T07:24:10;3.08;;;2.05;;
49310;SDS011;35177;45.900;5.946;2023-05-07T07:26:36;4.50;;;2.90;;
49310;SDS011;35177;45.900;5.946;2023-05-07T07:29:01;4.25;;;2.70;;
49310;SDS011;35177;45.900;5.946;2023-05-07T07:31:26;5.07;;;2.20;;
49310;SDS011;35177;45.900;5.946;2023-05-07T07:33:52;6.00;;;2.35;;
49310;SDS011;35177;45.900;5.946;2023-05-07T07:36:23;4.47;;;2.40;;
49310;SDS011;35177;45.900;5.946;2023-05-07T07:38:49;3.35;;;2.13;;
49310;SDS011;35177;45.900;5.946;2023-05-07T07:41:14;3.35;;;2.25;;
49310;SDS011;35177;45.900;5.946;2023-05-07T07:43:39;5.82;;;3.00;;
49310;SDS011;35177;45.900;5.946;2023-05-07T07:46:04;3.55;;;2.45;;
49310;SDS011;35177;45.900;5.946;2023-05-07T07:48:30;6.75;;;2.33;;
49310;SDS011;35177;45.900;5.946;2023-05-07T07:50:55;4.85;;;2.65;;
49310;SDS011;35177;45.900;5.946;2023-05-07T07:53:21;4.47;;;2.55;;
49310;SDS011;35177;45.900;5.946;2023-05-07T07:55:46;3.30;;;2.10;;
49310;SDS011;35177;45.900;5.946;2023-05-07T07:58:11;3.40;;;2.15;;
49310;SDS011;35177;45.900;5.946;2023-05-07T08:00:37;2.90;;;1.92;;
49310;SDS011;35177;45.900;5.946;2023-05-07T08:03:02;2.47;;;1.90;;
49310;SDS011;35177;45.900;5.946;2023-05-07T08:05:28;2.88;;;1.90;;
49310;SDS011;35177;45.900;5.946;2023-05-07T08:07:53;3.40;;;1.80;;
49310;SDS011;35177;45.900;5.946;2023-05-07T08:10:19;4.10;;;1.92;;
49310;SDS011;35177;45.900;5.946;2023-05-07T08:12:47;4.53;;;2.08;;
49310;SDS011;35177;45.900;5.946;2023-05-07T08:15:12;3.10;;;1.88;;
49310;SDS011;35177;45.900;5.946;2023-05-07T08:17:37;2.08;;;1.85;;
49310;SDS011;35177;45.900;5.946;2023-05-07T08:20:03;3.38;;;2.00;;
49310;SDS011;35177;45.900;5.946;2023-05-07T08:22:28;2.67;;;1.77;;
49310;SDS011;35177;45.900;5.946;2023-05-07T08:24:53;3.25;;;2.00;;
49310;SDS011;35177;45.900;5.946;2023-05-07T08:27:19;5.28;;;2.50;;
49310;SDS011;35177;45.900;5.946;2023-05-07T08:29:44;2.92;;;1.75;;
49310;SDS011;35177;45.900;5.946;2023-05-07T08:32:12;1.88;;;1.65;;
49310;SDS011;35177;45.900;5.946;2023-05-07T08:34:37;6.18;;;1.80;;
49310;SDS011;35177;45.900;5.946;2023-05-07T08:37:03;4.35;;;1.63;;
49310;SDS011;35177;45.900;5.946;2023-05-07T08:39:28;1.92;;;1.42;;
49310;SDS011;35177;45.900;5.946;2023-05-07T08:41:54;3.08;;;1.77;;
49310;SDS011;35177;45.900;5.946;2023-05-07T08:44:21;2.90;;;1.70;;
49310;SDS011;35177;45.900;5.946;2023-05-07T08:46:47;3.53;;;1.77;;
49310;SDS011;35177;45.900;5.946;2023-05-07T08:49:14;3.40;;;2.05;;
49310;SDS011;35177;45.900;5.946;2023-05-07T08:51:40;1.70;;;1.55;;
49310;SDS011;35177;45.900;5.946;2023-05-07T08:54:06;2.33;;;1.80;;
49310;SDS011;35177;45.900;5.946;2023-05-07T08:56:32;2.88;;;1.65;;
49310;SDS011;35177;45.900;5.946;2023-05-07T08:58:57;2.38;;;1.65;;
49310;SDS011;35177;45.900;5.946;2023-05-07T09:01:23;2.63;;;1.75;;
49310;SDS011;35177;45.900;5.946;2023-05-07T09:03:50;3.22;;;1.63;;
49310;SDS011;35177;45.900;5.946;2023-05-07T09:06:16;3.22;;;1.63;;
49310;SDS011;35177;45.900;5.946;2023-05-07T09:08:44;3.63;;;1.52;;
49310;SDS011;35177;45.900;5.946;2023-05-07T09:11:13;3.13;;;1.60;;
49310;SDS011;35177;45.900;5.946;2023-05-07T09:13:38;3.40;;;1.60;;
49310;SDS011;35177;45.900;5.946;2023-05-07T09:16:11;2.78;;;1.75;;
49310;SDS011;35177;45.900;5.946;2023-05-07T09:18:40;2.20;;;1.50;;
49310;SDS011;35177;45.900;5.946;2023-05-07T09:21:05;1.40;;;1.30;;
49310;SDS011;35177;45.900;5.946;2023-05-07T09:23:34;4.80;;;1.92;;
49310;SDS011;35177;45.900;5.946;2023-05-07T09:26:00;4.03;;;1.88;;
49310;SDS011;35177;45.900;5.946;2023-05-07T09:28:25;3.65;;;1.60;;
49310;SDS011;35177;45.900;5.946;2023-05-07T09:30:50;6.72;;;1.52;;
49310;SDS011;35177;45.900;5.946;2023-05-07T09:33:16;2.17;;;1.50;;
49310;SDS011;35177;45.900;5.946;2023-05-07T09:35:42;5.93;;;1.58;;
49310;SDS011;35177;45.900;5.946;2023-05-07T09:38:07;2.80;;;1.50;;
49310;SDS011;35177;45.900;5.946;2023-05-07T09:40:32;2.13;;;1.45;;
49310;SDS011;35177;45.900;5.946;2023-05-07T09:43:08;11.50;;;3.30;;
49310;SDS011;35177;45.900;5.946;2023-05-07T09:45:33;2.42;;;1.50;;
49310;SDS011;35177;45.900;5.946;2023-05-07T09:47:59;2.13;;;1.23;;
49310;SDS011;35177;45.900;5.946;2023-05-07T09:50:26;4.28;;;1.52;;
49310;SDS011;35177;45.900;5.946;2023-05-07T09:52:52;2.45;;;1.30;;
49310;SDS011;35177;45.900;5.946;2023-05-07T09:55:17;2.83;;;1.17;;
49310;SDS011;35177;45.900;5.946;2023-05-07T09:57:43;5.07;;;1.70;;
49310;SDS011;35177;45.900;5.946;2023-05-07T10:00:09;3.75;;;1.33;;
49310;SDS011;35177;45.900;5.946;2023-05-07T10:02:35;2.00;;;1.60;;
49310;SDS011;35177;45.900;5.946;2023-05-07T10:05:01;1.60;;;1.40;;
49310;SDS011;35177;45.900;5.946;2023-05-07T10:07:28;1.65;;;1.30;;
49310;SDS011;35177;45.900;5.946;2023-05-07T10:09:53;6.25;;;1.42;;
49310;SDS011;35177;45.900;5.946;2023-05-07T10:12:19;2.65;;;1.30;;
49310;SDS011;35177;45.900;5.946;2023-05-07T10:14:45;4.18;;;1.58;;
49310;SDS011;35177;45.900;5.946;2023-05-07T10:17:11;2.08;;;1.42;;
49310;SDS011;35177;45.900;5.946;2023-05-07T10:19:36;1.35;;;1.13;;
49310;SDS011;35177;45.900;5.946;2023-05-07T10:22:04;1.23;;;1.13;;
49310;SDS011;35177;45.900;5.946;2023-05-07T10:24:31;3.17;;;1.10;;
49310;SDS011;35177;45.900;5.946;2023-05-07T10:26:57;1.50;;;1.40;;
49310;SDS011;35177;45.900;5.946;2023-05-07T10:34:19;1.23;;;1.00;;
49310;SDS011;35177;45.900;5.946;2023-05-07T10:36:46;1.90;;;1.00;;
49310;SDS011;35177;45.900;5.946;2023-05-07T10:39:12;1.02;;;0.88;;
49310;SDS011;35177;45.900;5.946;2023-05-07T10:41:38;3.17;;;1.02;;
49310;SDS011;35177;45.900;5.946;2023-05-07T10:44:04;0.82;;;0.82;;
49310;SDS011;35177;45.900;5.946;2023-05-07T10:46:29;0.95;;;0.88;;
49310;SDS011;35177;45.900;5.946;2023-05-07T10:51:31;1.38;;;0.95;;
49310;SDS011;35177;45.900;5.946;2023-05-07T10:56:35;1.77;;;1.00;;
49310;SDS011;35177;45.900;5.946;2023-05-07T11:01:49;0.98;;;0.90;;
49310;SDS011;35177;45.900;5.946;2023-05-07T11:04:15;3.10;;;1.17;;
49310;SDS011;35177;45.900;5.946;2023-05-07T11:06:40;1.30;;;1.13;;
49310;SDS011;35177;45.900;5.946;2023-05-07T11:09:06;4.13;;;1.27;;
49310;SDS011;35177;45.900;5.946;2023-05-07T11:11:49;1.98;;;1.20;;
49310;SDS011;35177;45.900;5.946;2023-05-07T11:17:02;1.50;;;1.30;;
49310;SDS011;35177;45.900;5.946;2023-05-07T11:20:01;3.75;;;1.25;;
49310;SDS011;35177;45.900;5.946;2023-05-07T11:22:52;1.20;;;1.10;;
49310;SDS011;35177;45.900;5.946;2023-05-07T11:25:10;1.40;;;1.30;;
49310;SDS011;35177;45.900;5.946;2023-05-07T11:27:41;1.33;;;1.23;;
49310;SDS011;35177;45.900;5.946;2023-05-07T11:30:07;1.25;;;1.08;;
49310;SDS011;35177;45.900;5.946;2023-05-07T11:32:33;2.97;;;1.33;;
49310;SDS011;35177;45.900;5.946;2023-05-07T11:34:59;3.17;;;1.20;;
49310;SDS011;35177;45.900;5.946;2023-05-07T11:37:25;1.70;;;1.50;;
49310;SDS011;35177;45.900;5.946;2023-05-07T11:40:02;3.13;;;1.50;;
49310;SDS011;35177;45.900;5.946;2023-05-07T11:42:28;1.35;;;1.25;;
49310;SDS011;35177;45.900;5.946;2023-05-07T11:44:53;1.55;;;1.25;;
49310;SDS011;35177;45.900;5.946;2023-05-07T11:47:19;3.53;;;1.50;;
49310;SDS011;35177;45.900;5.946;2023-05-07T11:49:48;1.50;;;1.10;;
49310;SDS011;35177;45.900;5.946;2023-05-07T11:52:14;2.17;;;1.40;;
49310;SDS011;35177;45.900;5.946;2023-05-07T11:54:39;1.95;;;1.30;;
49310;SDS011;35177;45.900;5.946;2023-05-07T11:57:04;1.95;;;1.42;;
49310;SDS011;35177;45.900;5.946;2023-05-07T11:59:41;2.95;;;1.20;;
49310;SDS011;35177;45.900;5.946;2023-05-07T12:02:06;3.35;;;1.80;;
49310;SDS011;35177;45.900;5.946;2023-05-07T12:04:32;2.05;;;1.55;;
49310;SDS011;35177;45.900;5.946;2023-05-07T12:06:57;3.00;;;1.80;;
49310;SDS011;35177;45.900;5.946;2023-05-07T12:09:23;2.40;;;2.00;;
49310;SDS011;35177;45.900;5.946;2023-05-07T12:11:48;2.92;;;1.90;;
49310;SDS011;35177;45.900;5.946;2023-05-07T12:14:13;4.35;;;2.17;;
49310;SDS011;35177;45.900;5.946;2023-05-07T12:16:41;2.03;;;1.83;;
49310;SDS011;35177;45.900;5.946;2023-05-07T12:19:06;9.60;;;2.00;;
49310;SDS011;35177;45.900;5.946;2023-05-07T12:21:33;2.35;;;2.00;;
49310;SDS011;35177;45.900;5.946;2023-05-07T12:23:59;3.65;;;2.00;;
49310;SDS011;35177;45.900;5.946;2023-05-07T12:26:25;2.83;;;2.05;;
49310;SDS011;35177;45.900;5.946;2023-05-07T12:28:50;2.97;;;2.22;;
49310;SDS011;35177;45.900;5.946;2023-05-07T12:31:16;3.08;;;2.10;;
49310;SDS011;35177;45.900;5.946;2023-05-07T12:33:42;2.08;;;1.88;;
49310;SDS011;35177;45.900;5.946;2023-05-07T12:36:07;3.78;;;1.80;;
49310;SDS011;35177;45.900;5.946;2023-05-07T12:38:36;5.45;;;2.50;;
49310;SDS011;35177;45.900;5.946;2023-05-07T12:41:02;4.43;;;2.08;;
49310;SDS011;35177;45.900;5.946;2023-05-07T12:43:28;3.65;;;2.40;;
49310;SDS011;35177;45.900;5.946;2023-05-07T12:45:54;3.50;;;2.30;;
49310;SDS011;35177;45.900;5.946;2023-05-07T12:48:20;2.78;;;2.47;;
49310;SDS011;35177;45.900;5.946;2023-05-07T12:50:48;3.55;;;2.20;;
49310;SDS011;35177;45.900;5.946;2023-05-07T12:53:14;2.42;;;2.22;;
49310;SDS011;35177;45.900;5.946;2023-05-07T12:55:40;3.70;;;2.55;;
49310;SDS011;35177;45.900;5.946;2023-05-07T12:58:06;3.55;;;2.22;;
49310;SDS011;35177;45.900;5.946;2023-05-07T13:00:38;2.95;;;2.20;;
49310;SDS011;35177;45.900;5.946;2023-05-07T13:03:03;2.75;;;2.45;;
49310;SDS011;35177;45.900;5.946;2023-05-07T13:05:29;5.10;;;2.55;;
49310;SDS011;35177;45.900;5.946;2023-05-07T13:07:54;3.45;;;2.40;;
49310;SDS011;35177;45.900;5.946;2023-05-07T13:10:21;4.47;;;2.75;;
49310;SDS011;35177;45.900;5.946;2023-05-07T13:12:46;2.80;;;2.58;;
49310;SDS011;35177;45.900;5.946;2023-05-07T13:15:11;2.72;;;2.53;;
49310;SDS011;35177;45.900;5.946;2023-05-07T13:17:36;2.63;;;2.28;;
49310;SDS011;35177;45.900;5.946;2023-05-07T13:20:02;4.15;;;2.95;;
49310;SDS011;35177;45.900;5.946;2023-05-07T13:22:27;4.60;;;2.95;;
49310;SDS011;35177;45.900;5.946;2023-05-07T13:24:53;3.90;;;3.05;;
49310;SDS011;35177;45.900;5.946;2023-05-07T13:27:18;3.20;;;2.88;;
49310;SDS011;35177;45.900;5.946;2023-05-07T13:29:45;5.60;;;3.65;;
49310;SDS011;35177;45.900;5.946;2023-05-07T13:32:10;3.55;;;2.92;;
49310;SDS011;35177;45.900;5.946;2023-05-07T13:34:35;4.53;;;3.22;;
49310;SDS011;35177;45.900;5.946;2023-05-07T13:37:01;5.15;;;3.53;;
49310;SDS011;35177;45.900;5.946;2023-05-07T13:39:27;3.80;;;3.20;;
49310;SDS011;35177;45.900;5.946;2023-05-07T13:41:52;4.45;;;3.33;;
49310;SDS011;35177;45.900;5.946;2023-05-07T13:44:17;4.35;;;3.20;;
49310;SDS011;35177;45.900;5.946;2023-05-07T13:46:43;3.28;;;2.97;;
49310;SDS011;35177;45.900;5.946;2023-05-07T13:49:08;3.65;;;3.10;;
49310;SDS011;35177;45.900;5.946;2023-05-07T13:51:36;3.63;;;2.42;;
49310;SDS011;35177;45.900;5.946;2023-05-07T13:54:01;3.80;;;2.72;;
49310;SDS011;35177;45.900;5.946;2023-05-07T13:56:26;4.82;;;2.75;;
49310;SDS011;35177;45.900;5.946;2023-05-07T13:58:53;7.20;;;2.92;;
49310;SDS011;35177;45.900;5.946;2023-05-07T14:01:18;3.22;;;2.70;;
49310;SDS011;35177;45.900;5.946;2023-05-07T14:03:44;4.32;;;3.45;;
49310;SDS011;35177;45.900;5.946;2023-05-07T14:06:09;3.90;;;3.08;;
49310;SDS011;35177;45.900;5.946;2023-05-07T14:08:35;3.53;;;3.15;;
49310;SDS011;35177;45.900;5.946;2023-05-07T14:11:00;4.18;;;3.50;;
49310;SDS011;35177;45.900;5.946;2023-05-07T14:13:25;4.13;;;3.67;;
49310;SDS011;35177;45.900;5.946;2023-05-07T14:15:51;3.75;;;3.10;;
49310;SDS011;35177;45.900;5.946;2023-05-07T14:18:17;4.25;;;3.50;;
49310;SDS011;35177;45.900;5.946;2023-05-07T14:20:42;3.50;;;3.20;;
49310;SDS011;35177;45.900;5.946;2023-05-07T14:23:11;4.32;;;3.35;;
49310;SDS011;35177;45.900;5.946;2023-05-07T14:25:36;3.63;;;3.33;;
49310;SDS011;35177;45.900;5.946;2023-05-07T14:28:02;5.75;;;3.50;;
49310;SDS011;35177;45.900;5.946;2023-05-07T14:30:27;6.50;;;3.47;;
49310;SDS011;35177;45.900;5.946;2023-05-07T14:32:52;3.67;;;3.38;;
49310;SDS011;35177;45.900;5.946;2023-05-07T14:35:17;3.78;;;3.42;;
49310;SDS011;35177;45.900;5.946;2023-05-07T14:37:43;7.60;;;4.00;;
49310;SDS011;35177;45.900;5.946;2023-05-07T14:40:08;4.05;;;3.30;;
49310;SDS011;35177;45.900;5.946;2023-05-07T14:42:34;4.60;;;3.53;;
49310;SDS011;35177;45.900;5.946;2023-05-07T14:44:59;3.72;;;3.40;;
49310;SDS011;35177;45.900;5.946;2023-05-07T14:47:25;4.20;;;2.63;;
49310;SDS011;35177;45.900;5.946;2023-05-07T14:49:50;2.78;;;2.58;;
49310;SDS011;35177;45.900;5.946;2023-05-07T14:52:16;5.18;;;3.50;;
49310;SDS011;35177;45.900;5.946;2023-05-07T14:54:41;4.40;;;3.35;;
49310;SDS011;35177;45.900;5.946;2023-05-07T14:57:08;3.55;;;3.08;;